createdAt,value
2023-05-25T00:02:09.580Z,100616.75
2023-05-25T00:05:01.099Z,100615.81
2023-05-25T00:07:49.572Z,100613.72
2023-05-25T00:10:38.211Z,100617.78
2023-05-25T00:13:26.854Z,100606.41
2023-05-25T00:16:15.819Z,100611.31
2023-05-25T00:19:05.765Z,100613.53
2023-05-25T00:21:55.682Z,100601.06
2023-05-25T00:24:44.237Z,100601.91
2023-05-25T00:27:32.976Z,100608.28
2023-05-25T00:30:21.753Z,100600.13
2023-05-25T00:33:10.650Z,100600.88
2023-05-25T00:36:00.168Z,100595.25
2023-05-25T00:38:50.018Z,100571.16
2023-05-25T00:41:41.495Z,100597.56
2023-05-25T00:44:32.114Z,100601.94
2023-05-25T00:47:20.732Z,100591.34
2023-05-25T00:50:11.130Z,100594.84
2023-05-25T00:52:59.610Z,100595.84
2023-05-25T00:55:51.836Z,100596.66
2023-05-25T00:58:41.455Z,100591.13
2023-05-25T01:01:33.387Z,100580.88
2023-05-25T01:04:22.961Z,100591.03
2023-05-25T01:07:12.896Z,100589.66
2023-05-25T01:10:03.637Z,100595.78
2023-05-25T01:12:54.604Z,100583.00
2023-05-25T01:15:43.357Z,100595.34
2023-05-25T01:18:33.641Z,100589.38
2023-05-25T01:21:28.975Z,100589.81
2023-05-25T01:24:22.415Z,100594.97
2023-05-25T01:27:17.214Z,100581.22
2023-05-25T01:30:07.938Z,100599.78
2023-05-25T01:32:57.104Z,100594.97
2023-05-25T01:35:47.069Z,100602.72
2023-05-25T01:38:38.589Z,100595.78
2023-05-25T01:41:27.431Z,100577.91
2023-05-25T01:44:16.144Z,100595.75
2023-05-25T01:47:07.106Z,100595.44
2023-05-25T01:50:01.821Z,100597.47
2023-05-25T01:52:55.069Z,100588.97
2023-05-25T01:55:50.675Z,100593.44
2023-05-25T01:58:41.012Z,100579.41
2023-05-25T02:01:30.169Z,100601.38
2023-05-25T02:04:18.908Z,100594.66
2023-05-25T02:07:07.442Z,100605.91
2023-05-25T02:09:55.889Z,100602.38
2023-05-25T02:12:45.821Z,100565.81
2023-05-25T02:15:35.161Z,100603.75
2023-05-25T02:18:23.710Z,100596.38
2023-05-25T02:21:12.368Z,100587.28
2023-05-25T02:24:01.624Z,100597.00
2023-05-25T02:26:50.074Z,100584.59
2023-05-25T02:29:40.508Z,100585.94
2023-05-25T02:32:29.483Z,100577.59
2023-05-25T02:35:18.217Z,100591.91
2023-05-25T02:38:07.490Z,100584.78
2023-05-25T02:40:56.039Z,100575.78
2023-05-25T02:43:44.553Z,100592.31
2023-05-25T02:46:34.711Z,100590.00
2023-05-25T02:49:23.293Z,100589.28
2023-05-25T02:52:11.974Z,100584.09
2023-05-25T02:55:01.013Z,100600.16
2023-05-25T02:57:49.906Z,100592.59
2023-05-25T03:00:39.440Z,100547.19
2023-05-25T03:03:29.775Z,100586.28
2023-05-25T03:06:18.336Z,100585.94
2023-05-25T03:09:07.337Z,100588.31
2023-05-25T03:11:55.821Z,100596.03
2023-05-25T03:14:44.268Z,100596.56
2023-05-25T03:17:32.822Z,100607.94
2023-05-25T03:20:24.590Z,100611.28
2023-05-25T03:23:13.214Z,100616.28
2023-05-25T03:26:01.739Z,100604.59
2023-05-25T03:28:50.795Z,100616.31
2023-05-25T03:31:39.345Z,100618.31
2023-05-25T03:34:28.228Z,100620.97
2023-05-25T03:37:18.581Z,100630.69
2023-05-25T03:40:09.434Z,100635.00
2023-05-25T03:42:58.418Z,100645.03
2023-05-25T03:45:47.213Z,100634.06
2023-05-25T03:48:36.032Z,100636.47
2023-05-25T03:51:24.501Z,100624.50
2023-05-25T03:54:14.369Z,100637.69
2023-05-25T03:57:03.730Z,100639.38
2023-05-25T03:59:52.252Z,100634.06
2023-05-25T04:02:40.994Z,100633.19
2023-05-25T04:05:29.547Z,100640.69
2023-05-25T04:08:18.882Z,100638.88
2023-05-25T04:11:08.786Z,100643.50
2023-05-25T04:13:57.276Z,100644.84
2023-05-25T04:16:46.064Z,100637.00
2023-05-25T04:19:34.738Z,100646.00
2023-05-25T04:22:23.387Z,100644.50
2023-05-25T04:25:12.032Z,100657.34
2023-05-25T04:28:01.872Z,100649.31
2023-05-25T04:30:51.236Z,100646.53
2023-05-25T04:33:40.743Z,100657.69
2023-05-25T04:36:29.743Z,100625.38
2023-05-25T04:39:18.662Z,100649.50
2023-05-25T04:42:08.300Z,100665.59
2023-05-25T04:44:59.009Z,100665.59
2023-05-25T04:47:47.553Z,100664.41
2023-05-25T04:50:37.377Z,100660.66
2023-05-25T04:53:25.872Z,100671.84
2023-05-25T04:56:14.386Z,100681.66
2023-05-25T04:59:04.357Z,100675.88
2023-05-25T05:01:54.357Z,100680.78
2023-05-25T05:04:42.981Z,100684.34
2023-05-25T05:07:31.651Z,100673.50
2023-05-25T05:10:20.268Z,100677.22
2023-05-25T05:13:08.850Z,100679.91
2023-05-25T05:15:57.350Z,100673.38
2023-05-25T05:18:47.275Z,100675.88
2023-05-25T05:21:35.803Z,100672.81
2023-05-25T05:24:24.524Z,100680.91
2023-05-25T05:27:14.618Z,100691.19
2023-05-25T05:30:03.506Z,100696.81
2023-05-25T05:32:52.037Z,100696.13
2023-05-25T05:35:42.021Z,100690.25
2023-05-25T05:38:30.879Z,100701.31
2023-05-25T05:41:19.439Z,100699.28
2023-05-25T05:44:08.013Z,100719.13
2023-05-25T05:47:00.320Z,100724.91
2023-05-25T05:49:49.539Z,100720.44
2023-05-25T05:52:39.456Z,100728.88
2023-05-25T05:55:27.990Z,100725.94
2023-05-25T05:58:16.549Z,100729.53
2023-05-25T06:01:09.031Z,100735.75
2023-05-25T06:03:57.649Z,100741.84
2023-05-25T06:06:46.287Z,100738.66
2023-05-25T06:09:36.116Z,100695.09
2023-05-25T06:12:24.667Z,100751.84
2023-05-25T06:15:13.359Z,100739.81
2023-05-25T06:18:01.911Z,100738.22
2023-05-25T06:20:50.820Z,100743.25
2023-05-25T06:23:39.373Z,100742.16
2023-05-25T06:26:29.496Z,100754.00
2023-05-25T06:29:18.035Z,100751.09
2023-05-25T06:32:07.179Z,100765.69
2023-05-25T06:34:55.951Z,100760.25
2023-05-25T06:37:44.594Z,100761.56
2023-05-25T06:40:33.120Z,100761.59
2023-05-25T06:43:23.012Z,100766.31
2023-05-25T06:46:13.678Z,100754.94
2023-05-25T06:49:02.416Z,100760.13
2023-05-25T06:51:51.213Z,100771.09
2023-05-25T06:54:39.755Z,100769.88
2023-05-25T06:57:28.290Z,100759.47
2023-05-25T07:00:19.775Z,100771.50
2023-05-25T07:03:08.326Z,100768.13
2023-05-25T07:05:57.017Z,100765.06
2023-05-25T07:08:45.721Z,100758.94
2023-05-25T07:11:34.479Z,100765.13
2023-05-25T07:14:23.002Z,100751.91
2023-05-25T07:17:12.902Z,100756.59
2023-05-25T07:20:01.470Z,100757.53
2023-05-25T07:22:50.120Z,100759.63
2023-05-25T07:25:39.777Z,100744.38
2023-05-25T07:28:28.700Z,100742.44
2023-05-25T07:31:17.668Z,100731.97
2023-05-25T07:34:07.535Z,100747.13
2023-05-25T07:36:56.105Z,100754.41
2023-05-25T07:39:44.874Z,100750.66
2023-05-25T07:42:34.530Z,100762.41
2023-05-25T07:45:23.639Z,100756.56
2023-05-25T07:48:12.191Z,100754.22
2023-05-25T07:51:02.139Z,100759.50
2023-05-25T07:53:52.335Z,100752.72
2023-05-25T07:56:40.996Z,100754.13
2023-05-25T07:59:29.540Z,100743.97
2023-05-25T08:02:18.470Z,100754.84
2023-05-25T08:05:08.044Z,100751.06
2023-05-25T08:07:58.254Z,100743.69
2023-05-25T08:10:46.805Z,100755.75
2023-05-25T08:13:35.582Z,100753.09
2023-05-25T08:16:24.220Z,100766.44
2023-05-25T08:19:12.916Z,100751.63
2023-05-25T08:22:01.384Z,100770.47
2023-05-25T08:24:51.331Z,100764.66
2023-05-25T08:27:40.119Z,100758.94
2023-05-25T08:30:29.191Z,100758.19
2023-05-25T08:33:18.007Z,100770.00
2023-05-25T08:36:09.176Z,100766.91
2023-05-25T08:38:57.740Z,100763.41
2023-05-25T08:41:47.719Z,100770.16
2023-05-25T08:44:36.896Z,100775.44
2023-05-25T08:47:25.425Z,100773.78
2023-05-25T08:50:14.059Z,100769.75
2023-05-25T08:53:04.648Z,100778.94
2023-05-25T08:55:55.134Z,100759.13
2023-05-25T08:58:47.866Z,100776.19
2023-05-25T09:01:44.531Z,100777.72
2023-05-25T09:04:35.714Z,100761.91
2023-05-25T09:07:24.865Z,100751.31
2023-05-25T09:10:13.593Z,100767.97
2023-05-25T09:13:16.690Z,100753.25
2023-05-25T09:16:11.157Z,100776.19
2023-05-25T09:18:59.805Z,100778.06
2023-05-25T09:21:48.322Z,100754.84
2023-05-25T09:24:37.420Z,100776.19
2023-05-25T09:27:26.995Z,100769.75
2023-05-25T09:30:15.653Z,100735.78
2023-05-25T09:33:12.784Z,100765.88
2023-05-25T09:36:01.419Z,100752.03
2023-05-25T09:38:50.533Z,100772.31
2023-05-25T09:41:39.978Z,100772.41
2023-05-25T09:44:28.574Z,100759.94
2023-05-25T09:47:18.249Z,100758.53
2023-05-25T09:50:09.669Z,100751.38
2023-05-25T09:53:00.173Z,100699.25
2023-05-25T09:55:53.938Z,100754.03
2023-05-25T09:58:44.772Z,100760.75
2023-05-25T10:01:34.012Z,100762.91
2023-05-25T10:04:25.153Z,100758.22
2023-05-25T10:07:16.077Z,100720.34
2023-05-25T10:10:07.891Z,100760.06
2023-05-25T10:12:57.445Z,100761.97
2023-05-25T10:15:46.799Z,100769.00
2023-05-25T10:18:37.250Z,100757.50
2023-05-25T10:21:26.755Z,100759.19
2023-05-25T10:24:24.104Z,100756.00
2023-05-25T10:30:15.606Z,100772.41
2023-05-25T10:33:04.505Z,100768.75
2023-05-25T10:36:09.460Z,100754.03
2023-05-25T10:38:59.827Z,100763.44
2023-05-25T10:41:50.028Z,100767.56
2023-05-25T10:44:39.712Z,100760.38
2023-05-25T10:47:28.609Z,100760.72
2023-05-25T10:50:21.777Z,100754.31
2023-05-25T10:53:13.979Z,100762.91
2023-05-25T10:56:03.533Z,100766.84
2023-05-25T10:58:54.035Z,100759.56
2023-05-25T11:01:51.570Z,100756.00
2023-05-25T11:04:40.321Z,100760.38
2023-05-25T11:07:28.873Z,100767.03
2023-05-25T11:10:17.530Z,100745.97
2023-05-25T11:13:24.159Z,100764.25
2023-05-25T11:16:22.088Z,100759.53
2023-05-25T11:19:16.191Z,100759.06
2023-05-25T11:22:14.326Z,100749.59
2023-05-25T11:25:25.492Z,100759.47
2023-05-25T11:28:14.345Z,100762.88
2023-05-25T11:31:03.033Z,100754.03
2023-05-25T11:33:57.219Z,100743.75
2023-05-25T11:36:45.761Z,100743.41
2023-05-25T11:39:34.231Z,100742.97
2023-05-25T11:42:24.119Z,100749.94
2023-05-25T11:45:13.305Z,100746.34
2023-05-25T11:48:01.870Z,100746.34
2023-05-25T11:53:46.744Z,100698.75
2023-05-25T11:56:36.172Z,100739.66
2023-05-25T11:59:27.180Z,100745.56
2023-05-25T12:02:16.844Z,100740.34
2023-05-25T12:05:08.504Z,100712.09
2023-05-25T12:07:58.270Z,100739.38
2023-05-25T12:10:53.950Z,100745.81
2023-05-25T12:13:42.487Z,100739.28
2023-05-25T12:16:31.556Z,100730.34
2023-05-25T12:19:20.246Z,100726.88
2023-05-25T12:22:08.844Z,100731.25
2023-05-25T12:24:57.392Z,100735.91
2023-05-25T12:27:47.238Z,100738.84
2023-05-25T12:30:36.087Z,100738.53
2023-05-25T12:33:24.638Z,100729.28
2023-05-25T12:36:13.240Z,100734.19
2023-05-25T12:39:01.729Z,100730.09
2023-05-25T12:41:54.323Z,100732.03
2023-05-25T12:44:46.396Z,100739.94
2023-05-25T12:47:35.147Z,100711.19
2023-05-25T12:50:23.824Z,100727.28
2023-05-25T12:53:12.308Z,100731.75
2023-05-25T12:56:04.572Z,100726.59
2023-05-25T12:58:53.082Z,100722.16
2023-05-25T13:01:43.664Z,100722.47
2023-05-25T13:04:32.273Z,100719.75
2023-05-25T13:07:22.679Z,100718.06
2023-05-25T13:10:11.809Z,100715.94
2023-05-25T13:13:00.647Z,100696.75
2023-05-25T13:15:49.350Z,100710.72
2023-05-25T13:18:39.228Z,100715.91
2023-05-25T13:21:28.269Z,100719.19
2023-05-25T13:24:17.429Z,100721.38
2023-05-25T13:27:07.070Z,100709.31
2023-05-25T13:29:55.606Z,100669.94
2023-05-25T13:32:44.627Z,100709.03
2023-05-25T13:35:57.731Z,100710.16
2023-05-25T13:38:46.357Z,100715.63
2023-05-25T13:41:34.871Z,100713.19
2023-05-25T13:44:23.497Z,100698.41
2023-05-25T13:47:12.048Z,100699.22
2023-05-25T13:50:00.614Z,100705.22
2023-05-25T13:52:50.417Z,100697.28
2023-05-25T13:55:39.106Z,100698.13
2023-05-25T13:58:27.616Z,100685.47
2023-05-25T14:01:16.437Z,100695.09
2023-05-25T14:04:05.544Z,100689.13
2023-05-25T14:06:55.494Z,100704.16
2023-05-25T14:09:45.654Z,100688.53
2023-05-25T14:12:34.242Z,100689.31
2023-05-25T14:15:22.783Z,100689.06
2023-05-25T14:18:11.375Z,100675.31
2023-05-25T14:21:00.137Z,100678.63
2023-05-25T14:23:48.684Z,100673.66
2023-05-25T14:26:38.570Z,100681.09
2023-05-25T14:29:27.093Z,100671.25
2023-05-25T14:32:17.092Z,100680.31
2023-05-25T14:35:06.276Z,100683.03
2023-05-25T14:37:54.739Z,100686.31
2023-05-25T14:40:43.270Z,100677.78
2023-05-25T14:43:34.642Z,100679.13
2023-05-25T14:46:23.260Z,100676.75
2023-05-25T14:49:13.541Z,100670.69
2023-05-25T14:52:02.143Z,100672.03
2023-05-25T14:54:50.680Z,100683.50
2023-05-25T14:57:39.269Z,100684.59
2023-05-25T15:00:30.973Z,100687.31
2023-05-25T15:03:19.707Z,100687.91
2023-05-25T15:06:16.239Z,100679.13
2023-05-25T15:09:04.906Z,100683.28
2023-05-25T15:11:53.494Z,100672.59
2023-05-25T15:14:42.441Z,100671.78
2023-05-25T15:17:32.515Z,100676.41
2023-05-25T15:20:21.250Z,100664.66
2023-05-25T15:23:09.826Z,100670.97
2023-05-25T15:26:03.030Z,100669.06
2023-05-25T15:28:51.548Z,100670.41
2023-05-25T15:31:40.148Z,100671.47
2023-05-25T15:34:30.061Z,100678.31
2023-05-25T15:37:18.609Z,100682.16
2023-05-25T15:40:08.594Z,100681.91
2023-05-25T15:42:57.173Z,100680.03
2023-05-25T15:45:45.993Z,100676.19
2023-05-25T15:48:34.687Z,100675.09
2023-05-25T15:51:24.570Z,100671.28
2023-05-25T15:54:14.585Z,100668.84
2023-05-25T15:57:03.749Z,100677.31
2023-05-25T15:59:52.398Z,100664.16
2023-05-25T16:02:40.987Z,100659.53
2023-05-25T16:05:30.102Z,100659.78
2023-05-25T16:08:19.975Z,100661.69
2023-05-25T16:11:08.992Z,100658.44
2023-05-25T16:13:57.509Z,100659.25
2023-05-25T16:16:46.156Z,100660.06
2023-05-25T16:19:34.833Z,100659.53
2023-05-25T16:22:23.372Z,100662.53
2023-05-25T16:25:13.229Z,100657.91
2023-05-25T16:28:01.997Z,100652.97
2023-05-25T16:30:50.796Z,100649.13
2023-05-25T16:33:41.896Z,100647.50
2023-05-25T16:36:30.475Z,100653.53
2023-05-25T16:39:19.015Z,100629.97
2023-05-25T16:42:09.047Z,100656.78
2023-05-25T16:44:57.611Z,100623.41
2023-05-25T16:47:46.235Z,100649.13
2023-05-25T16:50:34.752Z,100630.78
2023-05-25T16:53:23.261Z,100654.34
2023-05-25T16:56:11.759Z,100630.78
2023-05-25T16:59:01.678Z,100649.94
2023-05-25T17:01:51.146Z,100657.06
2023-05-25T17:04:39.756Z,100647.47
2023-05-25T17:07:28.813Z,100635.97
2023-05-25T17:10:17.617Z,100651.56
2023-05-25T17:13:06.176Z,100663.34
2023-05-25T17:15:56.124Z,100658.41
2023-05-25T17:18:44.637Z,100641.19
2023-05-25T17:21:33.154Z,100646.38
2023-05-25T17:24:21.725Z,100655.69
2023-05-25T17:27:10.315Z,100649.66
2023-05-25T17:29:58.833Z,100651.56
2023-05-25T17:32:48.760Z,100654.03
2023-05-25T17:35:37.277Z,100648.00
2023-05-25T17:38:27.509Z,100647.16
2023-05-25T17:41:16.262Z,100648.28
2023-05-25T17:44:04.808Z,100640.59
2023-05-25T17:46:53.356Z,100648.25
2023-05-25T17:49:43.250Z,100621.13
2023-05-25T17:52:31.831Z,100649.06
2023-05-25T17:55:20.928Z,100640.50
2023-05-25T17:58:09.714Z,100642.94
2023-05-25T18:00:58.377Z,100639.09
2023-05-25T18:03:47.030Z,100648.94
2023-05-25T18:09:26.098Z,100659.59
2023-05-25T18:12:14.850Z,100650.78
2023-05-25T18:15:03.388Z,100664.97
2023-05-25T18:17:52.025Z,100656.47
2023-05-25T18:20:40.935Z,100662.47
2023-05-25T18:23:30.990Z,100652.06
2023-05-25T18:26:19.518Z,100654.22
2023-05-25T18:29:08.680Z,100657.75
2023-05-25T18:31:57.172Z,100658.81
2023-05-25T18:34:46.050Z,100656.25
2023-05-25T18:37:35.753Z,100656.50
2023-05-25T18:40:25.734Z,100655.09
2023-05-25T18:43:14.337Z,100650.63
2023-05-25T18:46:03.021Z,100664.25
2023-05-25T18:48:51.618Z,100660.34
2023-05-25T18:51:40.188Z,100656.41
2023-05-25T18:54:29.587Z,100660.75
2023-05-25T18:57:19.757Z,100660.41
2023-05-25T19:00:10.237Z,100655.13
2023-05-25T19:02:58.832Z,100651.63
2023-05-25T19:05:47.433Z,100662.75
2023-05-25T19:08:36.016Z,100662.34
2023-05-25T19:11:24.584Z,100661.97
2023-05-25T19:14:14.520Z,100664.09
2023-05-25T19:17:03.060Z,100661.44
2023-05-25T19:19:51.616Z,100663.13
2023-05-25T19:22:41.702Z,100671.88
2023-05-25T19:25:30.305Z,100667.81
2023-05-25T19:28:19.427Z,100670.31
2023-05-25T19:31:09.407Z,100683.44
2023-05-25T19:33:57.979Z,100679.97
2023-05-25T19:36:47.143Z,100683.84
2023-05-25T19:39:38.130Z,100685.31
2023-05-25T19:42:30.090Z,100686.78
2023-05-25T19:45:19.356Z,100697.72
2023-05-25T19:48:09.349Z,100694.34
2023-05-25T19:50:57.941Z,100694.66
2023-05-25T19:53:48.965Z,100697.44
2023-05-25T19:56:37.547Z,100697.34
2023-05-25T19:59:27.984Z,100702.50
2023-05-25T20:02:16.862Z,100653.66
2023-05-25T20:05:07.135Z,100688.31
2023-05-25T20:07:56.258Z,100678.91
2023-05-25T20:10:45.166Z,100715.94
2023-05-25T20:13:33.909Z,100710.75
2023-05-25T20:16:22.579Z,100710.78
2023-05-25T20:19:11.663Z,100689.31
2023-05-25T20:22:02.506Z,100711.94
2023-05-25T20:24:53.205Z,100708.31
2023-05-25T20:27:41.770Z,100712.19
2023-05-25T20:30:30.404Z,100710.84
2023-05-25T20:33:18.935Z,100717.19
2023-05-25T20:36:07.632Z,100720.75
2023-05-25T20:38:57.477Z,100726.59
2023-05-25T20:41:46.032Z,100724.34
2023-05-25T20:44:34.567Z,100726.53
2023-05-25T20:47:23.075Z,100731.47
2023-05-25T20:50:11.853Z,100678.56
2023-05-25T20:53:00.399Z,100734.38
2023-05-25T20:55:50.374Z,100723.22
2023-05-25T20:58:39.681Z,100743.59
2023-05-25T21:01:29.260Z,100730.47
2023-05-25T21:04:17.992Z,100721.63
2023-05-25T21:07:06.646Z,100740.34
2023-05-25T21:09:56.494Z,100735.50
2023-05-25T21:12:46.469Z,100747.56
2023-05-25T21:15:35.033Z,100749.09
2023-05-25T21:18:23.589Z,100746.91
2023-05-25T21:21:12.273Z,100747.81
2023-05-25T21:24:01.293Z,100756.38
2023-05-25T21:26:49.788Z,100752.06
2023-05-25T21:29:40.468Z,100762.16
2023-05-25T21:32:29.019Z,100764.06
2023-05-25T21:35:18.103Z,100763.69
2023-05-25T21:38:06.705Z,100766.22
2023-05-25T21:40:55.447Z,100772.91
2023-05-25T21:43:44.197Z,100772.38
2023-05-25T21:46:34.139Z,100777.22
2023-05-25T21:49:22.705Z,100784.09
2023-05-25T21:52:11.309Z,100778.16
2023-05-25T21:54:59.919Z,100783.19
2023-05-25T21:57:48.443Z,100780.88
2023-05-25T22:00:37.759Z,100791.28
2023-05-25T22:03:27.934Z,100792.38
2023-05-25T22:06:16.593Z,100793.47
2023-05-25T22:09:05.378Z,100794.16
2023-05-25T22:11:53.906Z,100791.28
2023-05-25T22:14:42.414Z,100798.56
2023-05-25T22:17:31.282Z,100778.28
2023-05-25T22:20:21.186Z,100807.97
2023-05-25T22:23:11.894Z,100809.47
2023-05-25T22:26:00.399Z,100811.75
2023-05-25T22:28:48.882Z,100812.19
2023-05-25T22:31:37.429Z,100815.31
2023-05-25T22:34:26.090Z,100814.50
2023-05-25T22:37:17.350Z,100815.78
2023-05-25T22:40:06.859Z,100808.31
2023-05-25T22:42:55.545Z,100818.09
2023-05-25T22:45:44.363Z,100823.53
2023-05-25T22:48:32.999Z,100821.47
2023-05-25T22:51:21.491Z,100822.09
2023-05-25T22:54:11.306Z,100825.22
2023-05-25T22:56:59.823Z,100829.97
2023-05-25T22:59:48.358Z,100829.56
2023-05-25T23:02:36.952Z,100826.03
2023-05-25T23:05:25.696Z,100825.00
2023-05-25T23:08:14.235Z,100824.59
2023-05-25T23:11:04.137Z,100826.66
2023-05-25T23:13:54.620Z,100826.88
2023-05-25T23:16:44.280Z,100830.41
2023-05-25T23:19:32.860Z,100834.56
2023-05-25T23:22:21.509Z,100836.66
2023-05-25T23:25:10.988Z,100843.06
2023-05-25T23:28:00.830Z,100842.66
2023-05-25T23:30:49.327Z,100843.06
2023-05-25T23:33:38.101Z,100831.25
2023-05-25T23:36:28.234Z,100840.38
2023-05-25T23:39:17.195Z,100841.00
2023-05-25T23:42:07.201Z,100845.13
2023-05-25T23:44:57.040Z,100848.69
2023-05-25T23:47:45.655Z,100856.13
2023-05-25T23:50:34.875Z,100847.22
2023-05-25T23:53:23.367Z,100855.50
2023-05-25T23:56:11.921Z,100856.31
2023-05-25T23:59:00.462Z,100847.00
